sensor_id;sensor_type;location;lat;lon;timestamp;P1;durP1;ratioP1;P2;durP2;ratioP2
4051;SDS011;2040;50.924;11.604;2024-01-11T00:00:08;13.98;;;8.75;;
4051;SDS011;2040;50.924;11.604;2024-01-11T00:02:33;27.10;;;10.90;;
4051;SDS011;2040;50.924;11.604;2024-01-11T00:04:59;9.33;;;5.70;;
4051;SDS011;2040;50.924;11.604;2024-01-11T00:07:25;22.00;;;9.50;;
4051;SDS011;2040;50.924;11.604;2024-01-11T00:09:50;15.10;;;8.47;;
4051;SDS011;2040;50.924;11.604;2024-01-11T00:12:16;14.53;;;6.97;;
4051;SDS011;2040;50.924;11.604;2024-01-11T00:14:41;9.37;;;6.20;;
4051;SDS011;2040;50.924;11.604;2024-01-11T00:17:07;9.93;;;7.13;;
4051;SDS011;2040;50.924;11.604;2024-01-11T00:19:32;21.83;;;8.03;;
4051;SDS011;2040;50.924;11.604;2024-01-11T00:21:58;32.87;;;10.53;;
4051;SDS011;2040;50.924;11.604;2024-01-11T00:24:23;15.13;;;7.00;;
4051;SDS011;2040;50.924;11.604;2024-01-11T00:26:49;11.90;;;6.03;;
4051;SDS011;2040;50.924;11.604;2024-01-11T00:29:15;19.63;;;9.77;;
4051;SDS011;2040;50.924;11.604;2024-01-11T00:31:40;14.47;;;5.40;;
4051;SDS011;2040;50.924;11.604;2024-01-11T00:34:06;13.33;;;7.03;;
4051;SDS011;2040;50.924;11.604;2024-01-11T00:36:31;11.60;;;7.80;;
4051;SDS011;2040;50.924;11.604;2024-01-11T00:39:01;11.40;;;6.80;;
4051;SDS011;2040;50.924;11.604;2024-01-11T00:41:27;14.17;;;8.33;;
4051;SDS011;2040;50.924;11.604;2024-01-11T00:43:52;8.47;;;7.10;;
4051;SDS011;2040;50.924;11.604;2024-01-11T00:46:18;7.00;;;4.93;;
4051;SDS011;2040;50.924;11.604;2024-01-11T00:48:44;12.83;;;7.47;;
4051;SDS011;2040;50.924;11.604;2024-01-11T00:51:09;17.33;;;7.13;;
4051;SDS011;2040;50.924;11.604;2024-01-11T00:53:35;12.60;;;7.10;;
4051;SDS011;2040;50.924;11.604;2024-01-11T00:56:00;9.30;;;6.90;;
4051;SDS011;2040;50.924;11.604;2024-01-11T00:58:26;12.93;;;6.87;;
4051;SDS011;2040;50.924;11.604;2024-01-11T01:00:52;12.70;;;8.50;;
4051;SDS011;2040;50.924;11.604;2024-01-11T01:03:18;13.57;;;6.72;;
4051;SDS011;2040;50.924;11.604;2024-01-11T01:05:45;20.45;;;6.28;;
4051;SDS011;2040;50.924;11.604;2024-01-11T01:08:11;7.45;;;6.32;;
4051;SDS011;2040;50.924;11.604;2024-01-11T01:10:37;15.05;;;9.65;;
4051;SDS011;2040;50.924;11.604;2024-01-11T01:13:02;11.17;;;7.70;;
4051;SDS011;2040;50.924;11.604;2024-01-11T01:15:28;15.90;;;8.13;;
4051;SDS011;2040;50.924;11.604;2024-01-11T01:17:53;15.33;;;6.30;;
4051;SDS011;2040;50.924;11.604;2024-01-11T01:20:19;9.03;;;7.80;;
4051;SDS011;2040;50.924;11.604;2024-01-11T01:22:44;14.07;;;5.80;;
4051;SDS011;2040;50.924;11.604;2024-01-11T01:25:10;14.40;;;8.20;;
4051;SDS011;2040;50.924;11.604;2024-01-11T01:27:35;18.03;;;8.43;;
4051;SDS011;2040;50.924;11.604;2024-01-11T01:30:01;9.13;;;8.13;;
4051;SDS011;2040;50.924;11.604;2024-01-11T01:32:27;29.43;;;6.70;;
4051;SDS011;2040;50.924;11.604;2024-01-11T01:34:52;15.40;;;9.17;;
4051;SDS011;2040;50.924;11.604;2024-01-11T01:37:18;15.00;;;5.43;;
4051;SDS011;2040;50.924;11.604;2024-01-11T01:39:43;11.00;;;4.97;;
4051;SDS011;2040;50.924;11.604;2024-01-11T01:42:09;17.20;;;6.30;;
4051;SDS011;2040;50.924;11.604;2024-01-11T01:44:34;11.13;;;8.47;;
4051;SDS011;2040;50.924;11.604;2024-01-11T01:47:00;25.47;;;7.60;;
4051;SDS011;2040;50.924;11.604;2024-01-11T01:49:27;10.68;;;9.50;;
4051;SDS011;2040;50.924;11.604;2024-01-11T01:51:53;20.70;;;9.70;;
4051;SDS011;2040;50.924;11.604;2024-01-11T01:54:19;8.45;;;7.30;;
4051;SDS011;2040;50.924;11.604;2024-01-11T01:56:47;11.95;;;9.93;;
4051;SDS011;2040;50.924;11.604;2024-01-11T01:59:13;15.88;;;6.55;;
4051;SDS011;2040;50.924;11.604;2024-01-11T02:01:39;27.30;;;10.02;;
4051;SDS011;2040;50.924;11.604;2024-01-11T02:04:05;27.43;;;9.07;;
4051;SDS011;2040;50.924;11.604;2024-01-11T02:06:31;20.30;;;8.83;;
4051;SDS011;2040;50.924;11.604;2024-01-11T02:08:59;15.38;;;8.63;;
4051;SDS011;2040;50.924;11.604;2024-01-11T02:11:28;10.48;;;6.78;;
4051;SDS011;2040;50.924;11.604;2024-01-11T02:13:53;17.50;;;9.33;;
4051;SDS011;2040;50.924;11.604;2024-01-11T02:16:20;12.63;;;6.47;;
4051;SDS011;2040;50.924;11.604;2024-01-11T02:18:45;14.30;;;9.87;;
4051;SDS011;2040;50.924;11.604;2024-01-11T02:21:11;10.53;;;8.27;;
4051;SDS011;2040;50.924;11.604;2024-01-11T02:23:42;15.48;;;5.70;;
4051;SDS011;2040;50.924;11.604;2024-01-11T02:26:13;14.77;;;8.45;;
4051;SDS011;2040;50.924;11.604;2024-01-11T02:28:43;17.75;;;7.35;;
4051;SDS011;2040;50.924;11.604;2024-01-11T02:31:10;14.95;;;8.20;;
4051;SDS011;2040;50.924;11.604;2024-01-11T02:33:37;11.77;;;8.10;;
4051;SDS011;2040;50.924;11.604;2024-01-11T02:36:04;12.82;;;6.47;;
4051;SDS011;2040;50.924;11.604;2024-01-11T02:38:30;11.43;;;5.15;;
4051;SDS011;2040;50.924;11.604;2024-01-11T02:40:58;16.63;;;10.68;;
4051;SDS011;2040;50.924;11.604;2024-01-11T02:43:24;23.58;;;7.35;;
4051;SDS011;2040;50.924;11.604;2024-01-11T02:45:53;9.43;;;6.10;;
4051;SDS011;2040;50.924;11.604;2024-01-11T02:48:20;14.88;;;7.40;;
4051;SDS011;2040;50.924;11.604;2024-01-11T02:50:45;15.53;;;8.00;;
4051;SDS011;2040;50.924;11.604;2024-01-11T02:53:11;9.60;;;6.37;;
4051;SDS011;2040;50.924;11.604;2024-01-11T02:55:37;5.90;;;5.50;;
4051;SDS011;2040;50.924;11.604;2024-01-11T02:58:02;13.53;;;5.73;;
4051;SDS011;2040;50.924;11.604;2024-01-11T03:00:28;11.60;;;5.40;;
4051;SDS011;2040;50.924;11.604;2024-01-11T03:02:53;10.67;;;8.87;;
4051;SDS011;2040;50.924;11.604;2024-01-11T03:05:19;10.30;;;6.80;;
4051;SDS011;2040;50.924;11.604;2024-01-11T03:07:44;13.10;;;6.63;;
4051;SDS011;2040;50.924;11.604;2024-01-11T03:10:10;14.37;;;6.63;;
4051;SDS011;2040;50.924;11.604;2024-01-11T03:12:35;14.67;;;8.13;;
4051;SDS011;2040;50.924;11.604;2024-01-11T03:15:01;21.90;;;7.07;;
4051;SDS011;2040;50.924;11.604;2024-01-11T03:17:26;8.03;;;4.90;;
4051;SDS011;2040;50.924;11.604;2024-01-11T03:19:52;10.10;;;6.80;;
4051;SDS011;2040;50.924;11.604;2024-01-11T03:22:18;5.77;;;5.27;;
4051;SDS011;2040;50.924;11.604;2024-01-11T03:24:43;21.63;;;8.97;;
4051;SDS011;2040;50.924;11.604;2024-01-11T03:27:09;8.17;;;5.60;;
4051;SDS011;2040;50.924;11.604;2024-01-11T03:29:34;9.80;;;4.77;;
4051;SDS011;2040;50.924;11.604;2024-01-11T03:32:00;20.83;;;7.47;;
4051;SDS011;2040;50.924;11.604;2024-01-11T03:34:25;7.67;;;6.70;;
4051;SDS011;2040;50.924;11.604;2024-01-11T03:36:51;13.70;;;8.00;;
4051;SDS011;2040;50.924;11.604;2024-01-11T03:39:16;5.00;;;4.50;;
4051;SDS011;2040;50.924;11.604;2024-01-11T03:41:45;7.60;;;5.80;;
4051;SDS011;2040;50.924;11.604;2024-01-11T03:44:11;11.35;;;7.43;;
4051;SDS011;2040;50.924;11.604;2024-01-11T03:46:37;12.80;;;7.18;;
4051;SDS011;2040;50.924;11.604;2024-01-11T03:49:02;8.27;;;5.10;;
4051;SDS011;2040;50.924;11.604;2024-01-11T03:51:28;18.70;;;5.07;;
4051;SDS011;2040;50.924;11.604;2024-01-11T03:53:53;8.63;;;5.17;;
4051;SDS011;2040;50.924;11.604;2024-01-11T03:56:19;6.63;;;4.77;;
4051;SDS011;2040;50.924;11.604;2024-01-11T03:58:44;15.50;;;6.60;;
4051;SDS011;2040;50.924;11.604;2024-01-11T04:01:10;20.47;;;8.00;;
4051;SDS011;2040;50.924;11.604;2024-01-11T04:03:36;7.90;;;5.93;;
4051;SDS011;2040;50.924;11.604;2024-01-11T04:06:03;13.35;;;6.47;;
4051;SDS011;2040;50.924;11.604;2024-01-11T04:08:28;19.90;;;7.15;;
4051;SDS011;2040;50.924;11.604;2024-01-11T04:10:54;14.30;;;5.87;;
4051;SDS011;2040;50.924;11.604;2024-01-11T04:13:19;15.43;;;5.17;;
4051;SDS011;2040;50.924;11.604;2024-01-11T04:15:45;7.33;;;6.63;;
4051;SDS011;2040;50.924;11.604;2024-01-11T04:18:11;11.53;;;6.10;;
4051;SDS011;2040;50.924;11.604;2024-01-11T04:20:36;10.80;;;5.30;;
4051;SDS011;2040;50.924;11.604;2024-01-11T04:23:02;8.33;;;7.50;;
4051;SDS011;2040;50.924;11.604;2024-01-11T04:25:27;21.47;;;7.70;;
4051;SDS011;2040;50.924;11.604;2024-01-11T04:27:53;24.13;;;6.10;;
4051;SDS011;2040;50.924;11.604;2024-01-11T04:30:18;12.30;;;6.23;;
4051;SDS011;2040;50.924;11.604;2024-01-11T04:32:44;8.27;;;5.60;;
4051;SDS011;2040;50.924;11.604;2024-01-11T04:35:09;10.90;;;7.43;;
4051;SDS011;2040;50.924;11.604;2024-01-11T04:37:35;6.97;;;3.53;;
4051;SDS011;2040;50.924;11.604;2024-01-11T04:40:01;34.30;;;8.33;;
4051;SDS011;2040;50.924;11.604;2024-01-11T04:42:27;8.05;;;6.43;;
4051;SDS011;2040;50.924;11.604;2024-01-11T04:44:53;9.20;;;5.87;;
4051;SDS011;2040;50.924;11.604;2024-01-11T04:47:19;12.57;;;5.40;;
4051;SDS011;2040;50.924;11.604;2024-01-11T04:49:44;7.10;;;3.77;;
4051;SDS011;2040;50.924;11.604;2024-01-11T04:52:10;8.17;;;6.27;;
4051;SDS011;2040;50.924;11.604;2024-01-11T04:54:35;8.73;;;7.93;;
4051;SDS011;2040;50.924;11.604;2024-01-11T04:57:01;11.90;;;5.43;;
4051;SDS011;2040;50.924;11.604;2024-01-11T04:59:27;12.80;;;4.47;;
4051;SDS011;2040;50.924;11.604;2024-01-11T05:01:53;9.60;;;5.43;;
4051;SDS011;2040;50.924;11.604;2024-01-11T05:04:19;4.90;;;4.50;;
4051;SDS011;2040;50.924;11.604;2024-01-11T05:06:44;8.17;;;6.00;;
4051;SDS011;2040;50.924;11.604;2024-01-11T05:09:10;14.17;;;7.87;;
4051;SDS011;2040;50.924;11.604;2024-01-11T05:11:35;15.70;;;7.57;;
4051;SDS011;2040;50.924;11.604;2024-01-11T05:14:01;26.03;;;8.17;;
4051;SDS011;2040;50.924;11.604;2024-01-11T05:16:27;9.70;;;4.90;;
4051;SDS011;2040;50.924;11.604;2024-01-11T05:18:54;5.97;;;4.15;;
4051;SDS011;2040;50.924;11.604;2024-01-11T05:21:20;10.85;;;4.30;;
4051;SDS011;2040;50.924;11.604;2024-01-11T05:23:47;8.93;;;5.67;;
4051;SDS011;2040;50.924;11.604;2024-01-11T05:26:13;9.63;;;5.45;;
4051;SDS011;2040;50.924;11.604;2024-01-11T05:28:40;19.13;;;6.82;;
4051;SDS011;2040;50.924;11.604;2024-01-11T05:33:35;14.65;;;5.95;;
4051;SDS011;2040;50.924;11.604;2024-01-11T05:36:01;11.40;;;6.43;;
4051;SDS011;2040;50.924;11.604;2024-01-11T05:38:27;6.35;;;5.78;;
4051;SDS011;2040;50.924;11.604;2024-01-11T05:40:53;9.17;;;5.37;;
4051;SDS011;2040;50.924;11.604;2024-01-11T05:43:18;10.93;;;5.10;;
4051;SDS011;2040;50.924;11.604;2024-01-11T05:45:44;6.53;;;4.80;;
4051;SDS011;2040;50.924;11.604;2024-01-11T05:48:10;9.27;;;4.27;;
4051;SDS011;2040;50.924;11.604;2024-01-11T05:50:35;10.77;;;6.03;;
4051;SDS011;2040;50.924;11.604;2024-01-11T05:53:01;12.07;;;5.57;;
4051;SDS011;2040;50.924;11.604;2024-01-11T05:55:27;16.55;;;6.47;;
4051;SDS011;2040;50.924;11.604;2024-01-11T05:57:53;7.90;;;4.30;;
4051;SDS011;2040;50.924;11.604;2024-01-11T06:00:19;16.55;;;5.15;;
4051;SDS011;2040;50.924;11.604;2024-01-11T06:02:45;14.80;;;6.57;;
4051;SDS011;2040;50.924;11.604;2024-01-11T06:05:10;11.67;;;8.00;;
4051;SDS011;2040;50.924;11.604;2024-01-11T06:07:37;8.40;;;7.57;;
4051;SDS011;2040;50.924;11.604;2024-01-11T06:10:03;10.40;;;5.73;;
4051;SDS011;2040;50.924;11.604;2024-01-11T06:12:30;9.48;;;7.93;;
4051;SDS011;2040;50.924;11.604;2024-01-11T06:14:56;12.87;;;4.93;;
4051;SDS011;2040;50.924;11.604;2024-01-11T06:17:22;5.25;;;4.85;;
4051;SDS011;2040;50.924;11.604;2024-01-11T06:19:48;9.73;;;5.67;;
4051;SDS011;2040;50.924;11.604;2024-01-11T06:22:14;11.90;;;4.10;;
4051;SDS011;2040;50.924;11.604;2024-01-11T06:24:40;9.23;;;5.10;;
4051;SDS011;2040;50.924;11.604;2024-01-11T06:27:05;7.43;;;5.20;;
4051;SDS011;2040;50.924;11.604;2024-01-11T06:29:31;11.43;;;6.83;;
4051;SDS011;2040;50.924;11.604;2024-01-11T06:31:56;16.73;;;6.27;;
4051;SDS011;2040;50.924;11.604;2024-01-11T06:34:22;13.47;;;7.23;;
4051;SDS011;2040;50.924;11.604;2024-01-11T06:36:47;5.60;;;4.57;;
4051;SDS011;2040;50.924;11.604;2024-01-11T06:39:13;11.73;;;8.20;;
4051;SDS011;2040;50.924;11.604;2024-01-11T06:41:38;7.70;;;5.90;;
4051;SDS011;2040;50.924;11.604;2024-01-11T06:44:04;15.40;;;9.03;;
4051;SDS011;2040;50.924;11.604;2024-01-11T06:46:30;5.80;;;4.10;;
4051;SDS011;2040;50.924;11.604;2024-01-11T06:48:55;14.60;;;8.30;;
4051;SDS011;2040;50.924;11.604;2024-01-11T06:51:21;22.10;;;6.83;;
4051;SDS011;2040;50.924;11.604;2024-01-11T06:53:47;10.73;;;6.35;;
4051;SDS011;2040;50.924;11.604;2024-01-11T06:56:16;12.88;;;7.15;;
4051;SDS011;2040;50.924;11.604;2024-01-11T06:58:43;13.65;;;8.32;;
4051;SDS011;2040;50.924;11.604;2024-01-11T07:01:09;15.52;;;6.30;;
4051;SDS011;2040;50.924;11.604;2024-01-11T07:03:35;11.10;;;5.80;;
4051;SDS011;2040;50.924;11.604;2024-01-11T07:06:01;7.60;;;3.90;;
4051;SDS011;2040;50.924;11.604;2024-01-11T07:08:28;10.35;;;6.80;;
4051;SDS011;2040;50.924;11.604;2024-01-11T07:10:53;12.90;;;5.93;;
4051;SDS011;2040;50.924;11.604;2024-01-11T07:13:19;13.77;;;8.23;;
4051;SDS011;2040;50.924;11.604;2024-01-11T07:15:44;9.27;;;6.00;;
4051;SDS011;2040;50.924;11.604;2024-01-11T07:18:10;6.77;;;5.90;;
4051;SDS011;2040;50.924;11.604;2024-01-11T07:20:35;14.27;;;6.57;;
4051;SDS011;2040;50.924;11.604;2024-01-11T07:23:01;12.23;;;6.77;;
4051;SDS011;2040;50.924;11.604;2024-01-11T07:25:27;18.80;;;9.87;;
4051;SDS011;2040;50.924;11.604;2024-01-11T07:27:52;14.80;;;5.87;;
4051;SDS011;2040;50.924;11.604;2024-01-11T07:30:18;6.70;;;5.40;;
4051;SDS011;2040;50.924;11.604;2024-01-11T07:32:43;6.93;;;4.97;;
4051;SDS011;2040;50.924;11.604;2024-01-11T07:35:09;5.67;;;5.13;;
4051;SDS011;2040;50.924;11.604;2024-01-11T07:37:36;17.03;;;6.10;;
4051;SDS011;2040;50.924;11.604;2024-01-11T07:40:02;5.88;;;5.05;;
4051;SDS011;2040;50.924;11.604;2024-01-11T07:42:28;7.88;;;4.75;;
4051;SDS011;2040;50.924;11.604;2024-01-11T07:44:54;5.70;;;5.20;;
4051;SDS011;2040;50.924;11.604;2024-01-11T07:47:20;12.20;;;8.40;;
4051;SDS011;2040;50.924;11.604;2024-01-11T07:49:45;7.47;;;5.80;;
4051;SDS011;2040;50.924;11.604;2024-01-11T07:52:11;5.87;;;3.87;;
4051;SDS011;2040;50.924;11.604;2024-01-11T07:54:36;15.93;;;6.60;;
4051;SDS011;2040;50.924;11.604;2024-01-11T07:57:02;14.75;;;7.70;;
4051;SDS011;2040;50.924;11.604;2024-01-11T07:59:34;11.55;;;7.57;;
4051;SDS011;2040;50.924;11.604;2024-01-11T08:02:03;15.95;;;6.88;;
4051;SDS011;2040;50.924;11.604;2024-01-11T08:04:29;11.97;;;5.97;;
4051;SDS011;2040;50.924;11.604;2024-01-11T08:06:54;9.57;;;6.93;;
4051;SDS011;2040;50.924;11.604;2024-01-11T08:09:21;24.80;;;9.00;;
4051;SDS011;2040;50.924;11.604;2024-01-11T08:11:47;18.60;;;10.27;;
4051;SDS011;2040;50.924;11.604;2024-01-11T08:14:12;9.03;;;6.30;;
4051;SDS011;2040;50.924;11.604;2024-01-11T08:16:39;21.05;;;7.68;;
4051;SDS011;2040;50.924;11.604;2024-01-11T08:19:04;10.47;;;6.43;;
4051;SDS011;2040;50.924;11.604;2024-01-11T08:21:30;11.57;;;8.40;;
4051;SDS011;2040;50.924;11.604;2024-01-11T08:23:56;18.30;;;9.07;;
4051;SDS011;2040;50.924;11.604;2024-01-11T08:26:21;41.67;;;8.07;;
4051;SDS011;2040;50.924;11.604;2024-01-11T08:28:47;22.07;;;8.70;;
4051;SDS011;2040;50.924;11.604;2024-01-11T08:31:13;7.33;;;6.17;;
4051;SDS011;2040;50.924;11.604;2024-01-11T08:33:38;8.90;;;5.43;;
4051;SDS011;2040;50.924;11.604;2024-01-11T08:36:05;16.40;;;8.83;;
4051;SDS011;2040;50.924;11.604;2024-01-11T08:38:31;10.82;;;6.32;;
4051;SDS011;2040;50.924;11.604;2024-01-11T08:40:57;14.13;;;5.83;;
4051;SDS011;2040;50.924;11.604;2024-01-11T08:43:24;23.15;;;9.13;;
4051;SDS011;2040;50.924;11.604;2024-01-11T08:45:50;19.83;;;8.23;;
4051;SDS011;2040;50.924;11.604;2024-01-11T08:48:15;15.97;;;6.60;;
4051;SDS011;2040;50.924;11.604;2024-01-11T08:50:42;23.08;;;7.90;;
4051;SDS011;2040;50.924;11.604;2024-01-11T08:53:07;11.80;;;6.87;;
4051;SDS011;2040;50.924;11.604;2024-01-11T08:55:33;11.83;;;7.20;;
4051;SDS011;2040;50.924;11.604;2024-01-11T08:57:58;18.10;;;6.70;;
4051;SDS011;2040;50.924;11.604;2024-01-11T09:00:24;5.67;;;5.13;;
4051;SDS011;2040;50.924;11.604;2024-01-11T09:02:51;14.80;;;8.20;;
4051;SDS011;2040;50.924;11.604;2024-01-11T09:05:16;16.57;;;9.13;;
4051;SDS011;2040;50.924;11.604;2024-01-11T09:07:42;22.10;;;7.80;;
4051;SDS011;2040;50.924;11.604;2024-01-11T09:10:08;13.93;;;7.70;;
4051;SDS011;2040;50.924;11.604;2024-01-11T09:12:34;17.07;;;7.53;;
4051;SDS011;2040;50.924;11.604;2024-01-11T09:15:00;10.95;;;6.90;;
4051;SDS011;2040;50.924;11.604;2024-01-11T09:17:26;16.17;;;10.30;;
4051;SDS011;2040;50.924;11.604;2024-01-11T09:19:51;22.30;;;9.30;;
4051;SDS011;2040;50.924;11.604;2024-01-11T09:22:17;16.70;;;9.23;;
4051;SDS011;2040;50.924;11.604;2024-01-11T09:24:42;17.33;;;9.10;;
4051;SDS011;2040;50.924;11.604;2024-01-11T09:27:08;19.00;;;10.10;;
4051;SDS011;2040;50.924;11.604;2024-01-11T09:29:34;13.00;;;8.80;;
4051;SDS011;2040;50.924;11.604;2024-01-11T09:31:59;16.23;;;9.23;;
4051;SDS011;2040;50.924;11.604;2024-01-11T09:34:25;25.97;;;9.80;;
4051;SDS011;2040;50.924;11.604;2024-01-11T09:36:50;29.23;;;13.97;;
4051;SDS011;2040;50.924;11.604;2024-01-11T09:39:17;15.73;;;8.73;;
4051;SDS011;2040;50.924;11.604;2024-01-11T09:41:46;19.42;;;7.10;;
4051;SDS011;2040;50.924;11.604;2024-01-11T09:44:17;14.32;;;8.73;;
4051;SDS011;2040;50.924;11.604;2024-01-11T09:46:44;18.90;;;8.30;;
4051;SDS011;2040;50.924;11.604;2024-01-11T09:49:09;23.90;;;10.23;;
4051;SDS011;2040;50.924;11.604;2024-01-11T09:51:37;20.20;;;12.18;;
4051;SDS011;2040;50.924;11.604;2024-01-11T09:54:04;25.83;;;11.27;;
4051;SDS011;2040;50.924;11.604;2024-01-11T09:56:30;20.00;;;8.98;;
4051;SDS011;2040;50.924;11.604;2024-01-11T09:58:57;18.83;;;11.45;;
4051;SDS011;2040;50.924;11.604;2024-01-11T10:01:22;18.83;;;10.17;;
4051;SDS011;2040;50.924;11.604;2024-01-11T10:03:49;19.65;;;11.55;;
4051;SDS011;2040;50.924;11.604;2024-01-11T10:06:15;18.53;;;11.70;;
4051;SDS011;2040;50.924;11.604;2024-01-11T10:08:42;30.80;;;13.13;;
4051;SDS011;2040;50.924;11.604;2024-01-11T10:11:08;47.35;;;12.30;;
4051;SDS011;2040;50.924;11.604;2024-01-11T10:13:35;25.90;;;12.10;;
4051;SDS011;2040;50.924;11.604;2024-01-11T10:16:11;20.70;;;11.75;;
4051;SDS011;2040;50.924;11.604;2024-01-11T10:18:43;30.47;;;16.20;;
4051;SDS011;2040;50.924;11.604;2024-01-11T10:21:11;20.13;;;11.47;;
4051;SDS011;2040;50.924;11.604;2024-01-11T10:23:36;26.60;;;13.40;;
4051;SDS011;2040;50.924;11.604;2024-01-11T10:26:03;20.60;;;12.17;;
4051;SDS011;2040;50.924;11.604;2024-01-11T10:28:29;19.23;;;11.00;;
4051;SDS011;2040;50.924;11.604;2024-01-11T10:30:55;28.07;;;12.80;;
4051;SDS011;2040;50.924;11.604;2024-01-11T10:33:22;23.80;;;11.80;;
4051;SDS011;2040;50.924;11.604;2024-01-11T10:35:48;19.90;;;12.63;;
4051;SDS011;2040;50.924;11.604;2024-01-11T10:38:14;22.43;;;10.47;;
4051;SDS011;2040;50.924;11.604;2024-01-11T10:40:41;25.37;;;10.60;;
4051;SDS011;2040;50.924;11.604;2024-01-11T10:43:08;28.60;;;13.27;;
4051;SDS011;2040;50.924;11.604;2024-01-11T10:45:36;22.47;;;11.93;;
4051;SDS011;2040;50.924;11.604;2024-01-11T10:48:07;31.20;;;13.53;;
4051;SDS011;2040;50.924;11.604;2024-01-11T10:50:43;20.83;;;11.97;;
4051;SDS011;2040;50.924;11.604;2024-01-11T10:56:12;29.60;;;13.20;;
4051;SDS011;2040;50.924;11.604;2024-01-11T10:58:44;31.10;;;12.90;;
4051;SDS011;2040;50.924;11.604;2024-01-11T11:01:11;32.93;;;13.87;;
4051;SDS011;2040;50.924;11.604;2024-01-11T11:03:38;25.60;;;11.10;;
4051;SDS011;2040;50.924;11.604;2024-01-11T11:06:04;39.03;;;17.03;;
4051;SDS011;2040;50.924;11.604;2024-01-11T11:08:31;29.60;;;13.67;;
4051;SDS011;2040;50.924;11.604;2024-01-11T11:10:58;33.20;;;16.17;;
4051;SDS011;2040;50.924;11.604;2024-01-11T11:13:25;32.53;;;14.97;;
4051;SDS011;2040;50.924;11.604;2024-01-11T11:15:52;36.03;;;16.97;;
4051;SDS011;2040;50.924;11.604;2024-01-11T11:18:18;27.17;;;14.17;;
4051;SDS011;2040;50.924;11.604;2024-01-11T11:20:45;28.93;;;16.00;;
4051;SDS011;2040;50.924;11.604;2024-01-11T11:23:11;30.87;;;15.57;;
4051;SDS011;2040;50.924;11.604;2024-01-11T11:25:39;37.37;;;16.10;;
4051;SDS011;2040;50.924;11.604;2024-01-11T11:28:06;29.83;;;14.50;;
4051;SDS011;2040;50.924;11.604;2024-01-11T11:30:38;26.43;;;15.53;;
4051;SDS011;2040;50.924;11.604;2024-01-11T11:33:09;31.57;;;17.00;;
4051;SDS011;2040;50.924;11.604;2024-01-11T11:35:35;42.57;;;18.60;;
4051;SDS011;2040;50.924;11.604;2024-01-11T11:38:01;27.57;;;15.67;;
4051;SDS011;2040;50.924;11.604;2024-01-11T11:40:37;32.63;;;13.53;;
4051;SDS011;2040;50.924;11.604;2024-01-11T11:43:08;33.27;;;15.00;;
4051;SDS011;2040;50.924;11.604;2024-01-11T11:45:34;41.87;;;16.73;;
4051;SDS011;2040;50.924;11.604;2024-01-11T11:48:00;36.17;;;16.07;;
4051;SDS011;2040;50.924;11.604;2024-01-11T11:50:26;32.00;;;16.03;;
4051;SDS011;2040;50.924;11.604;2024-01-11T11:52:55;43.40;;;18.90;;
4051;SDS011;2040;50.924;11.604;2024-01-11T11:55:24;41.77;;;17.87;;
4051;SDS011;2040;50.924;11.604;2024-01-11T11:57:50;35.10;;;17.17;;
4051;SDS011;2040;50.924;11.604;2024-01-11T12:00:17;42.30;;;16.70;;
4051;SDS011;2040;50.924;11.604;2024-01-11T12:02:43;34.03;;;17.60;;
4051;SDS011;2040;50.924;11.604;2024-01-11T12:05:09;39.33;;;16.30;;
4051;SDS011;2040;50.924;11.604;2024-01-11T12:07:34;36.30;;;18.00;;
4051;SDS011;2040;50.924;11.604;2024-01-11T12:10:00;42.00;;;17.70;;
4051;SDS011;2040;50.924;11.604;2024-01-11T12:12:26;31.10;;;15.67;;
4051;SDS011;2040;50.924;11.604;2024-01-11T12:14:53;53.97;;;18.93;;
4051;SDS011;2040;50.924;11.604;2024-01-11T12:17:19;30.97;;;14.80;;
4051;SDS011;2040;50.924;11.604;2024-01-11T12:19:44;42.97;;;17.30;;
4051;SDS011;2040;50.924;11.604;2024-01-11T12:22:10;38.90;;;17.57;;
4051;SDS011;2040;50.924;11.604;2024-01-11T12:24:36;36.17;;;16.47;;
4051;SDS011;2040;50.924;11.604;2024-01-11T12:27:02;27.57;;;16.17;;
4051;SDS011;2040;50.924;11.604;2024-01-11T12:29:28;30.63;;;16.40;;
4051;SDS011;2040;50.924;11.604;2024-01-11T12:31:55;41.50;;;16.93;;
4051;SDS011;2040;50.924;11.604;2024-01-11T12:34:28;42.13;;;18.00;;
4051;SDS011;2040;50.924;11.604;2024-01-11T12:36:54;36.27;;;18.60;;
4051;SDS011;2040;50.924;11.604;2024-01-11T12:39:20;39.70;;;18.87;;
4051;SDS011;2040;50.924;11.604;2024-01-11T12:41:50;33.13;;;15.00;;
4051;SDS011;2040;50.924;11.604;2024-01-11T12:44:19;38.20;;;15.40;;
4051;SDS011;2040;50.924;11.604;2024-01-11T12:46:47;33.37;;;15.57;;
4051;SDS011;2040;50.924;11.604;2024-01-11T12:49:14;26.67;;;16.83;;
4051;SDS011;2040;50.924;11.604;2024-01-11T12:51:40;37.67;;;17.90;;
4051;SDS011;2040;50.924;11.604;2024-01-11T12:54:10;33.50;;;17.47;;
4051;SDS011;2040;50.924;11.604;2024-01-11T12:56:44;39.10;;;18.30;;
4051;SDS011;2040;50.924;11.604;2024-01-11T12:59:10;30.73;;;15.20;;
4051;SDS011;2040;50.924;11.604;2024-01-11T13:01:37;41.87;;;18.90;;
4051;SDS011;2040;50.924;11.604;2024-01-11T13:04:03;45.50;;;18.60;;
4051;SDS011;2040;50.924;11.604;2024-01-11T13:06:29;41.83;;;18.10;;
4051;SDS011;2040;50.924;11.604;2024-01-11T13:08:56;46.47;;;20.43;;
4051;SDS011;2040;50.924;11.604;2024-01-11T13:11:22;43.97;;;16.60;;
4051;SDS011;2040;50.924;11.604;2024-01-11T13:13:49;45.70;;;19.27;;
4051;SDS011;2040;50.924;11.604;2024-01-11T13:16:16;41.43;;;20.00;;
4051;SDS011;2040;50.924;11.604;2024-01-11T13:18:43;46.23;;;18.20;;
4051;SDS011;2040;50.924;11.604;2024-01-11T13:21:09;36.33;;;17.53;;
4051;SDS011;2040;50.924;11.604;2024-01-11T13:23:37;44.30;;;17.73;;
4051;SDS011;2040;50.924;11.604;2024-01-11T13:26:03;43.37;;;18.80;;
4051;SDS011;2040;50.924;11.604;2024-01-11T13:28:29;44.90;;;19.97;;
4051;SDS011;2040;50.924;11.604;2024-01-11T13:30:55;40.63;;;19.80;;
4051;SDS011;2040;50.924;11.604;2024-01-11T13:33:21;38.47;;;17.60;;
4051;SDS011;2040;50.924;11.604;2024-01-11T13:35:48;43.50;;;20.57;;
4051;SDS011;2040;50.924;11.604;2024-01-11T13:38:14;41.83;;;18.57;;
4051;SDS011;2040;50.924;11.604;2024-01-11T13:40:40;45.20;;;19.60;;
4051;SDS011;2040;50.924;11.604;2024-01-11T13:43:07;37.60;;;17.23;;
4051;SDS011;2040;50.924;11.604;2024-01-11T13:45:33;40.60;;;18.33;;
4051;SDS011;2040;50.924;11.604;2024-01-11T13:48:01;46.37;;;18.20;;
4051;SDS011;2040;50.924;11.604;2024-01-11T13:50:28;44.63;;;19.67;;
4051;SDS011;2040;50.924;11.604;2024-01-11T13:52:53;32.80;;;15.90;;
4051;SDS011;2040;50.924;11.604;2024-01-11T13:55:19;47.43;;;18.27;;
4051;SDS011;2040;50.924;11.604;2024-01-11T13:57:48;36.30;;;18.90;;
4051;SDS011;2040;50.924;11.604;2024-01-11T14:00:15;35.67;;;18.23;;
4051;SDS011;2040;50.924;11.604;2024-01-11T14:02:43;41.83;;;19.47;;
4051;SDS011;2040;50.924;11.604;2024-01-11T14:05:10;36.80;;;18.30;;
4051;SDS011;2040;50.924;11.604;2024-01-11T14:07:38;37.30;;;17.47;;
4051;SDS011;2040;50.924;11.604;2024-01-11T14:10:07;39.30;;;18.17;;
4051;SDS011;2040;50.924;11.604;2024-01-11T14:12:34;36.50;;;15.40;;
4051;SDS011;2040;50.924;11.604;2024-01-11T14:15:02;36.63;;;18.20;;
4051;SDS011;2040;50.924;11.604;2024-01-11T14:17:28;34.60;;;16.40;;
4051;SDS011;2040;50.924;11.604;2024-01-11T14:19:54;44.17;;;20.53;;
4051;SDS011;2040;50.924;11.604;2024-01-11T14:22:20;43.37;;;18.57;;
4051;SDS011;2040;50.924;11.604;2024-01-11T14:24:45;35.23;;;17.17;;
4051;SDS011;2040;50.924;11.604;2024-01-11T14:27:11;39.47;;;19.63;;
4051;SDS011;2040;50.924;11.604;2024-01-11T14:29:36;37.00;;;16.87;;
4051;SDS011;2040;50.924;11.604;2024-01-11T14:32:02;44.50;;;19.60;;
4051;SDS011;2040;50.924;11.604;2024-01-11T14:34:27;46.07;;;19.27;;
4051;SDS011;2040;50.924;11.604;2024-01-11T14:36:53;53.03;;;19.10;;
4051;SDS011;2040;50.924;11.604;2024-01-11T14:39:19;32.47;;;16.60;;
4051;SDS011;2040;50.924;11.604;2024-01-11T14:41:44;46.13;;;19.47;;
4051;SDS011;2040;50.924;11.604;2024-01-11T14:44:10;38.33;;;18.40;;